Time;durP1;ratioP1;P1;durP2;ratioP2;P2;SDS_P1;SDS_P2;PMS_P1;PMS_P2;Temp;Humidity;BMP_temperature;BMP_pressure;BME280_temperature;BME280_humidity;BME280_pressure;Samples;Min_cycle;Max_cycle;Signal;HPM_P1;HPM_P2
2021/12/13 00:01:28;;;;;;;13.27;6.57;;;;;;;6.98;94.33;101723.19;5025935;28;20219;-67
2021/12/13 00:04:03;;;;;;;13.97;6.63;;;;;;;6.79;96.12;101728.75;5025366;28;20216;-68
2021/12/13 00:06:36;;;;;;;15.13;6.67;;;;;;;6.71;96.62;101720.44;5026625;28;20292;-69
2021/12/13 00:09:11;;;;;;;11.90;5.73;;;;;;;6.70;97.27;101724.03;5025841;28;20351;-67
2021/12/13 00:11:42;;;;;;;13.13;6.47;;;;;;;6.91;95.17;101728.00;5024860;28;20649;-67
2021/12/13 00:14:13;;;;;;;14.13;6.40;;;;;;;6.68;96.52;101725.94;5025517;28;20218;-66
2021/12/13 00:16:46;;;;;;;9.93;5.63;;;;;;;6.77;96.67;101726.19;5022561;28;20240;-68
2021/12/13 00:19:18;;;;;;;14.60;6.83;;;;;;;6.73;96.83;101723.84;5026081;28;20241;-67
2021/12/13 00:21:52;;;;;;;18.70;6.37;;;;;;;7.00;95.19;101738.00;5026116;28;20245;-68
2021/12/13 00:24:23;;;;;;;17.03;6.23;;;;;;;6.94;94.76;101729.63;5025159;28;20350;-69
2021/12/13 00:27:00;;;;;;;15.27;6.63;;;;;;;6.82;95.53;101730.34;5027447;28;20215;-67
2021/12/13 00:29:38;;;;;;;13.47;5.57;;;;;;;6.98;94.55;101731.97;5026887;28;20297;-67
2021/12/13 00:32:17;;;;;;;15.70;6.57;;;;;;;6.81;94.96;101732.13;5026571;28;20679;-69
2021/12/13 00:34:49;;;;;;;12.83;6.17;;;;;;;6.87;94.24;101738.81;5026341;28;20298;-68
2021/12/13 00:37:22;;;;;;;14.33;6.47;;;;;;;6.56;97.80;101738.03;5027175;28;20330;-67
2021/12/13 00:39:54;;;;;;;14.20;7.13;;;;;;;6.71;96.77;101736.28;5025776;28;20295;-69
2021/12/13 00:42:25;;;;;;;11.37;6.70;;;;;;;6.63;96.99;101739.38;5026582;28;20199;-68
2021/12/13 00:44:56;;;;;;;11.63;5.23;;;;;;;6.52;97.81;101739.16;5027163;28;20275;-67
2021/12/13 00:47:27;;;;;;;13.03;5.90;;;;;;;6.93;94.95;101741.94;5030032;28;20715;-66
2021/12/13 00:50:03;;;;;;;14.17;6.80;;;;;;;6.94;94.52;101743.66;5029045;28;20210;-67
2021/12/13 00:52:32;;;;;;;10.90;6.27;;;;;;;7.23;91.62;101743.63;5028133;28;20407;-68
2021/12/13 00:55:00;;;;;;;12.73;5.80;;;;;;;7.03;92.52;101737.81;5027797;28;20317;-68
2021/12/13 00:57:42;;;;;;;12.93;6.37;;;;;;;6.87;94.79;101742.31;5046820;28;20229;-68
2021/12/13 01:00:20;;;;;;;13.77;5.83;;;;;;;7.09;93.20;101747.13;5049859;28;20247;-68
2021/12/13 01:02:52;;;;;;;13.80;5.57;;;;;;;6.97;94.19;101742.59;5050160;28;20706;-68
2021/12/13 01:05:32;;;;;;;13.00;6.27;;;;;;;6.83;95.22;101738.19;5049540;28;20562;-68
2021/12/13 01:08:10;;;;;;;13.53;5.70;;;;;;;6.89;95.18;101739.56;5041128;28;20604;-68
2021/12/13 01:11:16;;;;;;;12.70;6.20;;;;;;;6.92;94.72;101739.41;5047533;28;20292;-68
2021/12/13 01:14:14;;;;;;;12.43;6.20;;;;;;;7.01;93.71;101746.75;5045466;28;20275;-68
2021/12/13 01:16:53;;;;;;;12.40;6.13;;;;;;;7.06;93.15;101752.59;5035757;28;20210;-68
2021/12/13 01:19:46;;;;;;;9.57;6.03;;;;;;;7.23;92.18;101748.88;5050567;28;20638;-68
2021/12/13 01:22:37;;;;;;;9.87;5.83;;;;;;;7.32;90.91;101759.72;5048612;28;20312;-68
2021/12/13 01:25:26;;;;;;;13.17;6.80;;;;;;;7.31;91.48;101754.53;5046426;28;20206;-68
2021/12/13 01:28:00;;;;;;;12.23;6.07;;;;;;;7.50;89.50;101761.22;5047108;28;20212;-67
2021/12/13 01:30:33;;;;;;;13.67;6.40;;;;;;;7.13;92.48;101761.81;5046814;28;20246;-67
2021/12/13 01:33:06;;;;;;;11.57;6.20;;;;;;;7.13;93.54;101765.28;5045834;28;20269;-68
2021/12/13 01:35:40;;;;;;;12.93;5.87;;;;;;;7.03;93.89;101763.34;5048896;28;20219;-67
2021/12/13 01:38:13;;;;;;;11.43;5.73;;;;;;;7.22;92.40;101769.16;5049325;28;20316;-68
2021/12/13 01:40:45;;;;;;;10.03;6.03;;;;;;;7.40;90.48;101775.06;5045660;28;20211;-67
2021/12/13 01:43:16;;;;;;;10.47;5.67;;;;;;;7.52;88.78;101772.53;5042758;28;20209;-67
2021/12/13 01:45:48;;;;;;;13.13;5.47;;;;;;;7.56;88.69;101778.47;5044886;28;20237;-68
2021/12/13 01:48:20;;;;;;;11.93;5.23;;;;;;;7.50;89.65;101781.47;5046221;28;20304;-68
2021/12/13 01:50:53;;;;;;;11.60;5.17;;;;;;;7.43;90.27;101778.38;5046411;28;20250;-67
2021/12/13 01:53:35;;;;;;;11.17;5.33;;;;;;;7.11;92.17;101780.38;5043571;28;20645;-68
2021/12/13 01:56:11;;;;;;;10.07;5.77;;;;;;;7.45;89.89;101775.66;5048016;28;20250;-68
2021/12/13 01:58:43;;;;;;;13.83;5.50;;;;;;;7.36;90.68;101781.50;5048549;28;20271;-68
2021/12/13 02:01:18;;;;;;;11.87;6.20;;;;;;;7.26;91.76;101781.22;5048849;28;20221;-68
2021/12/13 02:03:55;;;;;;;10.83;5.60;;;;;;;7.40;90.35;101772.44;5050039;28;20228;-68
2021/12/13 02:06:28;;;;;;;11.53;5.80;;;;;;;7.52;89.02;101776.94;5048992;28;20215;-68
2021/12/13 02:08:59;;;;;;;14.47;5.90;;;;;;;7.28;91.48;101773.22;5053054;28;20211;-68
2021/12/13 02:11:29;;;;;;;9.93;5.63;;;;;;;7.43;89.96;101772.25;5051236;28;20579;-68
2021/12/13 02:14:10;;;;;;;9.07;5.33;;;;;;;7.35;90.67;101774.53;5049654;28;20240;-68
2021/12/13 02:17:00;;;;;;;11.37;6.23;;;;;;;7.35;90.91;101780.66;5044284;28;20204;-68
2021/12/13 02:19:34;;;;;;;10.47;5.30;;;;;;;7.26;92.18;101785.66;5050464;28;20269;-68
2021/12/13 02:22:24;;;;;;;11.17;5.67;;;;;;;7.26;91.73;101788.28;5039919;28;20241;-68
2021/12/13 02:24:55;;;;;;;13.20;6.07;;;;;;;7.15;93.39;101784.50;5041700;28;20595;-68
2021/12/13 02:27:27;;;;;;;14.07;5.83;;;;;;;7.12;92.95;101795.25;5050083;28;20302;-68
2021/12/13 02:29:58;;;;;;;12.97;5.73;;;;;;;7.25;91.26;101781.31;5048124;28;20311;-68
2021/12/13 02:32:35;;;;;;;16.73;5.87;;;;;;;7.45;89.89;101786.22;5045692;28;20225;-68
2021/12/13 02:35:07;;;;;;;12.03;5.90;;;;;;;7.55;88.71;101785.53;5047016;28;20372;-67
2021/12/13 02:37:36;;;;;;;12.23;5.40;;;;;;;7.47;89.62;101781.69;5047569;28;20207;-68
2021/12/13 02:40:07;;;;;;;10.63;5.67;;;;;;;7.20;92.06;101786.88;5054919;28;20294;-67
2021/12/13 02:42:36;;;;;;;10.63;5.87;;;;;;;7.32;91.20;101785.25;5047240;28;20678;-68
2021/12/13 02:45:13;;;;;;;10.97;6.47;;;;;;;7.22;91.63;101784.13;5045484;28;20297;-68
2021/12/13 02:47:47;;;;;;;11.37;6.20;;;;;;;7.34;90.80;101780.75;5048627;28;20313;-67
2021/12/13 02:50:21;;;;;;;14.20;6.60;;;;;;;7.45;90.24;101786.22;5048183;28;20317;-67
2021/12/13 02:52:50;;;;;;;11.83;6.07;;;;;;;7.47;89.95;101779.06;5045365;28;20315;-67
2021/12/13 02:55:28;;;;;;;13.37;5.90;;;;;;;7.65;88.35;101783.13;5054640;28;20237;-67
2021/12/13 02:58:00;;;;;;;11.80;5.53;;;;;;;7.51;88.69;101780.53;5027624;28;20237;-67
2021/12/13 03:00:34;;;;;;;10.63;5.60;;;;;;;7.40;89.65;101777.72;5024738;28;20307;-67
2021/12/13 03:03:06;;;;;;;12.57;6.47;;;;;;;7.24;90.65;101783.09;5027367;28;20228;-67
2021/12/13 03:05:37;;;;;;;14.13;5.90;;;;;;;7.27;90.77;101776.78;5026542;28;20222;-66
2021/12/13 03:08:10;;;;;;;12.03;5.70;;;;;;;7.03;92.37;101774.75;5023782;28;20727;-67
2021/12/13 03:10:48;;;;;;;10.20;5.60;;;;;;;7.04;92.89;101781.69;5027559;28;20242;-67
2021/12/13 03:13:16;;;;;;;12.67;6.03;;;;;;;7.00;93.16;101774.91;5024147;28;20241;-67
2021/12/13 03:15:48;;;;;;;10.77;5.10;;;;;;;6.81;95.23;101779.59;5020855;28;20248;-67
2021/12/13 03:18:23;;;;;;;9.97;4.90;;;;;;;6.86;94.75;101780.16;5024590;28;20643;-67
2021/12/13 03:21:18;;;;;;;13.10;6.27;;;;;;;7.02;93.51;101775.69;5041130;28;20230;-66
2021/12/13 03:24:01;;;;;;;14.93;6.27;;;;;;;7.17;91.89;101777.38;5046625;28;20212;-68
2021/12/13 03:26:55;;;;;;;11.40;6.27;;;;;;;7.37;90.84;101780.56;5049953;28;20687;-68
2021/12/13 03:29:35;;;;;;;11.27;6.40;;;;;;;7.13;92.19;101781.13;5046274;28;20674;-67
2021/12/13 03:32:04;;;;;;;15.13;6.03;;;;;;;6.90;93.68;101779.03;5036805;28;20222;-67
2021/12/13 03:34:35;;;;;;;11.97;5.90;;;;;;;6.70;95.48;101771.47;5041561;28;20211;-67
2021/12/13 03:37:10;;;;;;;12.83;5.87;;;;;;;6.88;94.70;101772.16;5043815;28;20238;-68
2021/12/13 03:39:40;;;;;;;12.70;6.63;;;;;;;6.86;95.05;101766.97;5046574;28;20236;-66
2021/12/13 03:42:12;;;;;;;15.93;7.20;;;;;;;6.94;93.16;101767.38;5047697;28;20569;-68
2021/12/13 03:44:46;;;;;;;17.57;7.20;;;;;;;6.98;94.00;101768.88;5045952;28;20889;-68
2021/12/13 03:47:18;;;;;;;13.97;6.83;;;;;;;7.29;91.48;101772.28;5043737;28;20223;-68
2021/12/13 03:49:49;;;;;;;13.63;6.63;;;;;;;7.22;91.18;101776.22;5041847;28;20288;-68
2021/12/13 03:52:20;;;;;;;12.77;6.63;;;;;;;7.17;92.14;101774.72;5044514;28;20219;-68
2021/12/13 03:54:50;;;;;;;15.07;5.90;;;;;;;7.16;92.17;101770.38;5047452;28;20313;-68
2021/12/13 03:57:20;;;;;;;12.53;6.60;;;;;;;6.77;94.34;101771.00;5042172;28;20313;-68
2021/12/13 03:59:49;;;;;;;13.13;6.47;;;;;;;6.76;96.03;101782.53;5050804;28;20229;-68
2021/12/13 04:02:20;;;;;;;16.63;6.90;;;;;;;6.75;95.96;101775.56;5042257;28;20214;-68
2021/12/13 04:04:52;;;;;;;12.70;6.60;;;;;;;6.83;95.92;101777.72;5046037;28;20301;-67
2021/12/13 04:07:22;;;;;;;14.40;5.97;;;;;;;6.93;94.70;101781.50;5044284;28;20242;-68
2021/12/13 04:09:56;;;;;;;14.63;6.57;;;;;;;7.08;93.27;101777.94;5047150;28;20225;-67
2021/12/13 04:12:34;;;;;;;11.43;6.00;;;;;;;6.96;94.35;101769.91;5042295;28;20303;-67
2021/12/13 04:15:15;;;;;;;13.20;6.43;;;;;;;6.92;94.96;101777.16;5045391;28;20206;-67
2021/12/13 04:17:58;;;;;;;12.33;6.20;;;;;;;6.86;95.39;101772.25;5048752;28;20233;-68
2021/12/13 04:20:28;;;;;;;11.60;6.03;;;;;;;7.01;94.29;101773.97;5045474;28;20233;-68
2021/12/13 04:23:00;;;;;;;14.23;6.83;;;;;;;6.68;96.09;101774.22;5049313;28;20205;-68
2021/12/13 04:25:35;;;;;;;11.23;6.20;;;;;;;6.60;97.24;101770.31;5052433;28;20772;-68
2021/12/13 04:28:09;;;;;;;12.37;6.87;;;;;;;6.71;97.21;101767.91;5051883;28;20278;-67
2021/12/13 04:30:41;;;;;;;10.50;6.30;;;;;;;6.86;95.87;101772.25;5050485;28;20289;-66
2021/12/13 04:33:20;;;;;;;9.70;5.90;;;;;;;6.95;95.57;101786.69;5046944;28;20212;-68
2021/12/13 04:35:49;;;;;;;14.30;6.07;;;;;;;7.11;93.50;101783.03;5044954;28;20228;-67
2021/12/13 04:38:23;;;;;;;9.10;5.77;;;;;;;7.36;91.19;101786.78;5050105;28;20218;-69
2021/12/13 04:40:52;;;;;;;13.80;6.60;;;;;;;7.22;91.88;101784.13;5044800;28;20212;-67
2021/12/13 04:43:23;;;;;;;10.37;6.00;;;;;;;7.07;92.79;101792.06;5041322;28;20392;-68
2021/12/13 04:45:57;;;;;;;12.50;6.53;;;;;;;7.24;92.00;101791.03;5046205;28;20203;-68
2021/12/13 04:48:28;;;;;;;11.40;6.50;;;;;;;7.06;93.07;101789.50;5050367;28;20305;-67
2021/12/13 04:51:03;;;;;;;13.00;6.40;;;;;;;7.24;92.02;101792.81;5049753;28;20218;-68
2021/12/13 04:53:34;;;;;;;13.40;6.60;;;;;;;7.16;92.47;101795.91;5046511;28;20209;-67
2021/12/13 04:56:06;;;;;;;10.33;5.70;;;;;;;7.21;92.27;101799.16;5050807;28;20737;-67
2021/12/13 04:58:36;;;;;;;12.20;5.80;;;;;;;6.95;93.77;101803.34;5050014;28;20222;-68
2021/12/13 05:01:07;;;;;;;10.93;6.10;;;;;;;7.21;92.82;101808.84;5050980;28;20271;-68
2021/12/13 05:03:41;;;;;;;11.87;6.53;;;;;;;7.38;90.07;101806.00;5048225;28;20653;-68
2021/12/13 05:06:14;;;;;;;12.87;6.20;;;;;;;6.92;93.51;101814.09;5049763;28;20264;-68
2021/12/13 05:08:42;;;;;;;10.90;5.67;;;;;;;7.00;93.81;101801.28;5049161;28;20235;-68
2021/12/13 05:11:14;;;;;;;12.37;5.73;;;;;;;6.89;93.83;101798.44;5049558;28;20254;-68
2021/12/13 05:13:49;;;;;;;11.60;6.37;;;;;;;7.22;92.08;101798.16;5044798;28;20296;-68
2021/12/13 05:16:26;;;;;;;13.60;7.00;;;;;;;7.14;92.09;101800.44;5041498;28;20872;-68
2021/12/13 05:18:56;;;;;;;11.47;6.53;;;;;;;7.11;92.35;101814.69;5050057;28;20214;-68
2021/12/13 05:21:28;;;;;;;14.60;6.30;;;;;;;7.03;93.14;101811.66;5050870;28;20215;-66
2021/12/13 05:23:59;;;;;;;12.50;6.10;;;;;;;7.35;90.48;101803.56;5049755;28;20678;-68
2021/12/13 05:26:33;;;;;;;11.20;6.30;;;;;;;7.23;90.82;101814.84;5046390;28;20877;-68
2021/12/13 05:29:05;;;;;;;13.47;6.30;;;;;;;7.40;89.95;101817.31;5047051;28;20673;-68
2021/12/13 05:31:33;;;;;;;12.47;6.60;;;;;;;7.55;88.87;101819.84;5046007;28;20215;-68
2021/12/13 05:34:05;;;;;;;14.57;6.33;;;;;;;7.58;88.68;101818.78;5045966;28;20207;-68
2021/12/13 05:36:35;;;;;;;12.40;6.13;;;;;;;7.49;89.03;101820.22;5048149;28;20713;-68
2021/12/13 05:39:10;;;;;;;14.30;6.40;;;;;;;7.51;88.50;101818.34;5045566;28;20218;-68
2021/12/13 05:41:39;;;;;;;10.40;5.50;;;;;;;7.67;87.65;101822.66;5047599;28;20705;-67
2021/12/13 05:44:11;;;;;;;10.67;6.83;;;;;;;7.67;87.79;101831.41;5041717;28;20693;-67
2021/12/13 05:46:45;;;;;;;11.30;6.37;;;;;;;7.60;88.11;101826.63;5047511;28;20220;-68
2021/12/13 05:49:20;;;;;;;11.97;6.50;;;;;;;7.47;88.37;101826.56;5049296;28;20248;-68
2021/12/13 05:51:51;;;;;;;11.07;5.77;;;;;;;7.61;87.83;101833.59;5047427;28;20214;-68
2021/12/13 05:54:27;;;;;;;10.87;6.17;;;;;;;7.52;88.17;101840.31;5045338;28;20283;-67
2021/12/13 05:56:59;;;;;;;11.83;5.77;;;;;;;7.22;90.35;101827.19;5041018;28;20239;-67
2021/12/13 05:59:31;;;;;;;11.50;7.20;;;;;;;7.25;90.25;101829.66;5044743;28;20719;-68
2021/12/13 06:02:11;;;;;;;11.07;7.23;;;;;;;7.32;89.77;101835.41;5046107;28;20292;-68
2021/12/13 06:04:45;;;;;;;13.57;7.57;;;;;;;7.45;89.49;101831.06;5048767;28;20209;-68
2021/12/13 06:07:23;;;;;;;11.50;6.40;;;;;;;7.46;89.29;101832.78;5043943;28;20244;-67
2021/12/13 06:09:59;;;;;;;13.30;6.20;;;;;;;7.30;89.62;101832.84;5046969;28;20257;-68
2021/12/13 06:12:36;;;;;;;15.43;6.40;;;;;;;6.87;92.37;101831.97;5046376;28;20218;-68
2021/12/13 06:15:21;;;;;;;11.33;7.03;;;;;;;7.20;91.41;101842.28;5044393;28;20297;-68
2021/12/13 06:17:55;;;;;;;12.57;6.53;;;;;;;7.40;89.88;101836.63;5044061;28;20302;-68
2021/12/13 06:20:26;;;;;;;12.60;6.77;;;;;;;7.59;88.44;101846.03;5047323;28;20267;-68
2021/12/13 06:23:05;;;;;;;12.57;6.93;;;;;;;7.46;88.45;101852.09;5047479;28;20705;-69
2021/12/13 06:25:33;;;;;;;18.00;7.73;;;;;;;7.20;90.14;101852.00;5042274;28;20312;-67
2021/12/13 06:28:02;;;;;;;11.13;6.90;;;;;;;7.02;91.75;101844.25;5045485;28;20284;-68
2021/12/13 06:30:34;;;;;;;11.93;6.63;;;;;;;7.16;91.36;101846.91;5046178;28;20214;-68
2021/12/13 06:33:06;;;;;;;11.23;7.07;;;;;;;7.35;89.46;101845.78;5048332;28;20219;-68
2021/12/13 06:35:39;;;;;;;10.33;6.60;;;;;;;6.98;92.01;101847.16;5052177;28;20204;-68
2021/12/13 06:38:33;;;;;;;12.50;6.87;;;;;;;7.28;90.07;101857.66;5048263;28;20582;-67
2021/12/13 06:41:06;;;;;;;11.23;6.43;;;;;;;7.17;90.47;101856.50;5046954;28;20236;-68
2021/12/13 06:43:36;;;;;;;14.83;7.30;;;;;;;7.15;91.30;101860.19;5045097;28;20297;-68
2021/12/13 06:46:09;;;;;;;12.20;6.40;;;;;;;7.15;90.94;101863.66;5047907;28;20215;-68
2021/12/13 06:48:41;;;;;;;12.23;7.10;;;;;;;6.79;93.29;101860.56;5046311;28;20211;-68
2021/12/13 06:51:16;;;;;;;12.50;6.80;;;;;;;7.11;92.14;101870.09;5051126;28;20211;-68
2021/12/13 06:54:01;;;;;;;12.60;7.17;;;;;;;7.18;90.81;101868.75;5047447;28;20633;-67
2021/12/13 06:56:34;;;;;;;13.60;8.57;;;;;;;7.50;89.06;101874.72;5053490;28;20264;-68
2021/12/13 06:59:05;;;;;;;11.93;6.73;;;;;;;7.35;89.49;101874.81;5050365;28;20222;-67
2021/12/13 07:01:39;;;;;;;12.67;6.50;;;;;;;7.16;91.20;101865.38;5046684;28;20692;-68
2021/12/13 07:04:10;;;;;;;14.63;6.77;;;;;;;7.03;92.33;101864.41;5043148;28;20205;-69
2021/12/13 07:06:39;;;;;;;18.17;7.57;;;;;;;6.90;93.47;101852.88;5047126;28;20506;-68
2021/12/13 07:09:12;;;;;;;11.83;7.13;;;;;;;7.00;92.47;101863.75;5048529;28;20243;-68
2021/12/13 07:11:50;;;;;;;12.10;7.37;;;;;;;6.85;94.23;101862.88;5044958;28;20218;-68
2021/12/13 07:14:21;;;;;;;14.93;7.23;;;;;;;7.00;92.93;101861.94;5043769;28;20346;-67
2021/12/13 07:16:52;;;;;;;14.53;8.33;;;;;;;7.04;92.54;101850.25;5037413;28;20220;-67
2021/12/13 07:19:23;;;;;;;15.90;8.43;;;;;;;6.96;93.11;101865.69;5044742;28;20656;-68
2021/12/13 07:21:56;;;;;;;14.20;7.37;;;;;;;6.84;93.65;101866.44;5045927;28;20692;-68
2021/12/13 07:24:31;;;;;;;12.17;7.30;;;;;;;6.99;93.08;101865.53;5035039;28;20302;-69
2021/12/13 07:27:04;;;;;;;13.98;7.50;;;;;;;7.17;91.77;101861.78;5041742;28;20522;-63
2021/12/13 07:29:39;;;;;;;11.73;7.17;;;;;;;7.00;92.91;101866.38;5045149;28;20225;-63
2021/12/13 07:32:13;;;;;;;12.17;7.47;;;;;;;7.14;92.48;101871.66;5045775;28;20556;-63
2021/12/13 07:34:54;;;;;;;13.67;7.30;;;;;;;7.06;92.63;101874.75;5046063;28;20231;-62
2021/12/13 07:37:45;;;;;;;11.37;6.80;;;;;;;7.01;93.09;101868.94;5052467;28;20218;-63
2021/12/13 07:40:30;;;;;;;15.17;7.63;;;;;;;7.04;93.50;101870.50;5042141;28;20210;-63
2021/12/13 07:43:18;;;;;;;13.07;7.13;;;;;;;7.32;91.20;101870.56;5040971;28;20218;-63
2021/12/13 07:45:55;;;;;;;13.20;6.80;;;;;;;7.15;92.86;101874.22;5039014;28;20301;-63
2021/12/13 07:48:29;;;;;;;16.00;7.27;;;;;;;7.45;90.50;101875.94;5041079;28;20217;-64
2021/12/13 07:51:10;;;;;;;10.97;7.07;;;;;;;7.33;90.95;101882.81;5039877;28;20209;-63
2021/12/13 07:53:47;;;;;;;11.23;7.30;;;;;;;7.46;90.42;101885.56;5044231;28;20312;-62
2021/12/13 07:56:22;;;;;;;12.93;6.83;;;;;;;7.44;90.50;101884.81;5043091;28;20664;-63
2021/12/13 07:58:52;;;;;;;14.30;7.57;;;;;;;7.16;92.21;101881.19;5047943;28;20328;-61
2021/12/13 08:01:24;;;;;;;12.20;6.90;;;;;;;7.28;92.10;101882.25;5044357;28;20242;-62
2021/12/13 08:03:58;;;;;;;14.90;7.43;;;;;;;7.32;91.80;101877.63;5042756;28;20225;-62
2021/12/13 08:06:29;;;;;;;12.73;6.57;;;;;;;7.48;90.81;101886.28;5043133;28;20214;-63
2021/12/13 08:09:00;;;;;;;14.03;7.90;;;;;;;7.43;91.59;101883.97;5047308;28;20816;-63
2021/12/13 08:11:42;;;;;;;14.13;8.30;;;;;;;7.56;90.62;101894.63;5049789;28;20810;-63
2021/12/13 08:14:11;;;;;;;15.30;8.23;;;;;;;7.53;91.01;101897.44;5044424;28;20240;-62
2021/12/13 08:16:43;;;;;;;14.53;7.90;;;;;;;7.55;90.91;101903.47;5045171;28;20663;-63
2021/12/13 08:19:17;;;;;;;15.63;8.00;;;;;;;7.46;92.16;101894.34;5048883;28;20218;-62
2021/12/13 08:21:50;;;;;;;12.50;7.63;;;;;;;7.27;93.09;101895.53;5043075;28;20352;-64
2021/12/13 08:24:23;;;;;;;14.63;8.17;;;;;;;7.30;93.07;101898.00;5045073;28;20218;-62
2021/12/13 08:26:57;;;;;;;14.93;8.33;;;;;;;7.35;93.12;101893.28;5048882;28;20208;-63
2021/12/13 08:29:31;;;;;;;16.13;8.70;;;;;;;7.54;91.73;101901.78;5046325;28;20211;-63
2021/12/13 08:32:02;;;;;;;15.10;7.87;;;;;;;7.50;91.94;101901.09;5043334;28;20317;-63
2021/12/13 08:34:36;;;;;;;18.07;8.60;;;;;;;7.53;92.33;101906.22;5047943;28;20215;-62
2021/12/13 08:37:13;;;;;;;22.60;9.27;;;;;;;7.50;92.03;101901.09;5043760;28;20207;-64
2021/12/13 08:39:41;;;;;;;16.80;8.23;;;;;;;7.38;93.44;101901.03;5047629;28;20890;-66
2021/12/13 08:42:12;;;;;;;15.23;8.23;;;;;;;7.42;92.95;101899.88;5045737;28;20227;-64
2021/12/13 08:44:43;;;;;;;16.87;8.50;;;;;;;7.30;94.03;101903.28;5044598;28;20252;-62
2021/12/13 08:47:15;;;;;;;16.20;8.73;;;;;;;7.43;94.08;101909.50;5045815;28;20225;-63
2021/12/13 08:49:50;;;;;;;14.00;8.07;;;;;;;7.44;93.88;101906.78;5045478;28;20294;-65
2021/12/13 08:52:23;;;;;;;17.90;9.13;;;;;;;7.49;94.00;101909.97;5042036;28;20931;-63
2021/12/13 08:55:02;;;;;;;20.53;8.60;;;;;;;7.37;94.69;101901.97;5050804;28;20336;-64
2021/12/13 08:57:38;;;;;;;20.53;9.00;;;;;;;7.58;94.23;101908.56;5028883;28;20241;-64
2021/12/13 09:00:19;;;;;;;14.80;8.63;;;;;;;7.82;91.70;101912.34;5017379;28;20218;-64
2021/12/13 09:02:53;;;;;;;16.30;9.07;;;;;;;7.96;90.65;101915.91;5025346;28;20231;-63
2021/12/13 09:05:26;;;;;;;18.07;8.17;;;;;;;8.12;89.17;101914.84;5026141;28;21071;-63
2021/12/13 09:08:00;;;;;;;14.93;8.50;;;;;;;7.97;90.72;101909.69;5030843;28;20220;-64
2021/12/13 09:10:42;;;;;;;17.07;9.20;;;;;;;7.85;91.99;101906.84;5040752;28;20208;-64
2021/12/13 09:13:11;;;;;;;15.20;8.33;;;;;;;8.21;89.14;101911.59;5029893;28;20682;-64
2021/12/13 09:15:40;;;;;;;12.23;8.23;;;;;;;8.28;88.47;101912.06;5027762;28;20684;-64
2021/12/13 09:18:09;;;;;;;14.10;9.10;;;;;;;8.11;90.11;101917.56;5032344;28;20221;-64
2021/12/13 09:20:43;;;;;;;10.87;7.83;;;;;;;7.97;90.98;101914.97;5026263;28;20213;-63
2021/12/13 09:23:15;;;;;;;15.57;8.43;;;;;;;7.88;91.61;101917.25;5021923;28;20710;-62
2021/12/13 09:25:50;;;;;;;14.97;8.30;;;;;;;7.93;91.75;101919.56;5033162;28;20840;-63
2021/12/13 09:28:21;;;;;;;14.53;9.17;;;;;;;7.90;92.22;101919.78;5031055;28;20963;-63
2021/12/13 09:30:54;;;;;;;14.87;8.40;;;;;;;8.28;90.00;101935.84;5022137;28;20208;-64
2021/12/13 09:33:24;;;;;;;15.23;8.40;;;;;;;8.24;89.61;101927.28;5027019;28;20221;-62
2021/12/13 09:35:56;;;;;;;13.33;8.27;;;;;;;8.37;88.94;101926.50;5039892;28;20203;-63
2021/12/13 09:38:38;;;;;;;14.10;7.70;;;;;;;8.72;85.97;101932.16;5028369;28;20237;-64
2021/12/13 09:41:21;;;;;;;14.40;8.07;;;;;;;8.38;88.88;101936.13;5027577;28;20208;-63
2021/12/13 09:43:54;;;;;;;19.33;9.03;;;;;;;8.66;86.81;101923.69;5035014;28;20715;-63
2021/12/13 09:46:43;;;;;;;14.13;7.70;;;;;;;8.74;85.99;101927.63;5037338;28;20225;-63
2021/12/13 09:49:15;;;;;;;13.23;7.90;;;;;;;8.69;86.31;101920.00;5025538;28;20221;-64
2021/12/13 09:51:49;;;;;;;10.93;6.87;;;;;;;8.58;87.75;101931.28;5045065;28;20218;-64
2021/12/13 09:54:21;;;;;;;12.20;7.30;;;;;;;8.74;86.01;101930.25;5034374;28;20323;-63
2021/12/13 09:56:52;;;;;;;11.30;7.30;;;;;;;8.85;85.58;101927.75;5031429;28;20236;-61
2021/12/13 09:59:27;;;;;;;14.50;8.00;;;;;;;8.49;88.46;101918.66;5028199;28;20625;-62
2021/12/13 10:01:58;;;;;;;13.00;7.27;;;;;;;8.67;87.78;101925.38;5030330;28;20232;-62
2021/12/13 10:04:31;;;;;;;10.73;6.77;;;;;;;8.89;85.61;101926.59;5023046;28;20240;-62
2021/12/13 10:07:05;;;;;;;10.27;6.70;;;;;;;8.87;85.63;101920.59;5029112;28;20621;-62
2021/12/13 10:09:36;;;;;;;11.33;7.00;;;;;;;8.97;84.05;101913.72;5027488;28;20245;-61
2021/12/13 10:12:08;;;;;;;11.87;6.50;;;;;;;8.94;84.88;101913.94;5028640;28;20228;-61
2021/12/13 10:14:40;;;;;;;11.07;6.70;;;;;;;8.97;84.22;101919.84;5027720;28;20235;-62
2021/12/13 10:17:10;;;;;;;10.93;6.60;;;;;;;8.67;86.42;101912.16;5026520;28;20202;-62
2021/12/13 10:19:41;;;;;;;9.03;5.87;;;;;;;8.89;84.67;101905.44;5031996;28;20299;-61
2021/12/13 10:22:14;;;;;;;10.40;6.47;;;;;;;8.93;84.31;101902.50;5027020;28;20233;-62
2021/12/13 10:24:50;;;;;;;10.97;6.77;;;;;;;8.99;84.36;101911.81;5028602;28;20213;-62
2021/12/13 10:27:19;;;;;;;13.20;7.27;;;;;;;9.08;83.73;101897.97;5035442;28;20209;-62
2021/12/13 10:29:53;;;;;;;11.43;6.30;;;;;;;8.96;84.33;101901.44;5029587;28;20212;-63
2021/12/13 10:32:24;;;;;;;13.57;7.13;;;;;;;8.82;86.89;101897.06;5022969;28;20684;-63
2021/12/13 10:34:57;;;;;;;11.50;6.90;;;;;;;8.95;85.35;101897.94;5025643;28;20213;-63
2021/12/13 10:37:30;;;;;;;14.90;8.00;;;;;;;8.76;86.45;101900.13;5019281;28;20203;-62
2021/12/13 10:40:06;;;;;;;11.37;6.77;;;;;;;8.41;89.19;101904.22;5021989;28;20209;-63
2021/12/13 10:42:37;;;;;;;11.57;6.60;;;;;;;8.27;90.60;101905.91;5025964;28;20283;-63
2021/12/13 10:45:09;;;;;;;11.00;6.70;;;;;;;8.21;91.46;101903.69;5028350;28;20214;-62
2021/12/13 10:47:40;;;;;;;13.07;7.83;;;;;;;8.28;91.35;101904.13;5017395;28;20205;-62
2021/12/13 10:50:11;;;;;;;11.87;7.27;;;;;;;8.50;90.04;101899.19;5027333;28;20212;-62
2021/12/13 10:52:44;;;;;;;14.47;7.03;;;;;;;8.52;89.61;101899.09;5022039;28;20209;-63
2021/12/13 10:55:16;;;;;;;10.73;6.70;;;;;;;8.54;88.85;101892.75;5018302;28;20697;-63
2021/12/13 10:57:48;;;;;;;13.23;7.27;;;;;;;8.86;86.62;101901.22;5020728;28;20243;-61
2021/12/13 11:00:20;;;;;;;14.53;7.40;;;;;;;8.68;88.32;101892.69;5034298;28;20209;-66
2021/12/13 11:02:53;;;;;;;10.87;7.07;;;;;;;8.57;89.40;101897.00;5024547;28;20232;-61
2021/12/13 11:05:23;;;;;;;17.10;8.33;;;;;;;8.70;88.84;101899.69;5028736;28;22199;-62
2021/12/13 11:07:53;;;;;;;14.30;7.73;;;;;;;8.80;87.50;101896.31;5021669;28;20578;-64
2021/12/13 11:10:23;;;;;;;13.17;7.70;;;;;;;8.85;87.19;101898.66;5026890;28;20212;-64
2021/12/13 11:12:58;;;;;;;12.93;7.60;;;;;;;8.87;87.22;101892.34;5019935;28;20188;-61
2021/12/13 11:15:29;;;;;;;14.47;8.50;;;;;;;8.91;87.09;101893.81;5024370;28;20316;-62
2021/12/13 11:17:59;;;;;;;12.40;7.47;;;;;;;8.76;88.46;101883.41;5026760;28;20747;-63
2021/12/13 11:20:32;;;;;;;15.97;7.73;;;;;;;8.45;90.83;101887.19;5025810;28;20636;-62
2021/12/13 11:23:02;;;;;;;12.20;8.20;;;;;;;8.58;90.45;101888.13;5024466;28;20221;-63
2021/12/13 11:25:33;;;;;;;10.70;7.43;;;;;;;8.76;88.92;101884.25;5024546;28;20456;-62
2021/12/13 11:28:01;;;;;;;12.13;7.80;;;;;;;9.01;86.29;101884.31;5027076;28;20209;-62
2021/12/13 11:30:31;;;;;;;16.20;7.00;;;;;;;9.12;85.58;101880.94;5025642;28;20765;-61
2021/12/13 11:34:01;;;;;;;15.03;7.60;;;;;;;8.88;87.18;101888.72;5015373;28;20226;-60
2021/12/13 11:36:48;;;;;;;10.83;6.63;;;;;;;8.89;87.54;101889.56;5017242;28;20652;-62
2021/12/13 11:39:44;;;;;;;10.87;6.53;;;;;;;8.61;88.92;101880.84;5019952;28;20361;-62
2021/12/13 11:42:45;;;;;;;9.60;6.33;;;;;;;8.92;87.33;101874.34;5024213;28;20221;-63
2021/12/13 11:45:49;;;;;;;13.37;6.83;;;;;;;8.68;88.77;101884.78;5025165;28;20307;-63
2021/12/13 11:48:41;;;;;;;11.90;6.23;;;;;;;8.82;87.88;101885.63;5025346;28;20286;-62
2021/12/13 11:51:35;;;;;;;11.43;5.97;;;;;;;8.97;86.75;101876.69;5025408;28;20240;-62
2021/12/13 11:54:37;;;;;;;10.50;6.27;;;;;;;8.76;88.09;101878.13;5036557;28;20678;-62
2021/12/13 11:57:33;;;;;;;9.27;6.03;;;;;;;8.80;87.82;101874.31;5009897;28;20916;-62
2021/12/13 12:00:15;;;;;;;8.80;5.77;;;;;;;8.78;87.99;101881.50;5040911;28;20228;-64
2021/12/13 12:03:11;;;;;;;10.90;5.80;;;;;;;8.69;87.77;101880.31;5034223;28;20233;-63